sensor_id;sensor_type;location;lat;lon;timestamp;temperature;humidity
10964;DHT22;5534;48.784;9.190;2024-01-15T00:02:20;2.10;99.90
10964;DHT22;5534;48.784;9.190;2024-01-15T00:04:46;2.20;99.90
10964;DHT22;5534;48.784;9.190;2024-01-15T00:07:12;2.30;99.90
10964;DHT22;5534;48.784;9.190;2024-01-15T00:09:39;2.30;99.90
10964;DHT22;5534;48.784;9.190;2024-01-15T00:12:06;2.30;99.90
10964;DHT22;5534;48.784;9.190;2024-01-15T00:14:32;2.30;99.90
10964;DHT22;5534;48.784;9.190;2024-01-15T00:16:57;2.30;99.90
10964;DHT22;5534;48.784;9.190;2024-01-15T00:19:23;2.30;99.90
10964;DHT22;5534;48.784;9.190;2024-01-15T00:21:50;2.20;99.90
10964;DHT22;5534;48.784;9.190;2024-01-15T00:24:16;2.10;99.90
10964;DHT22;5534;48.784;9.190;2024-01-15T00:26:41;2.00;99.90
10964;DHT22;5534;48.784;9.190;2024-01-15T00:29:08;1.90;99.90
10964;DHT22;5534;48.784;9.190;2024-01-15T00:31:34;2.00;99.90
10964;DHT22;5534;48.784;9.190;2024-01-15T00:34:00;2.10;99.90
10964;DHT22;5534;48.784;9.190;2024-01-15T00:36:26;2.10;99.90
10964;DHT22;5534;48.784;9.190;2024-01-15T00:38:52;2.10;99.90
10964;DHT22;5534;48.784;9.190;2024-01-15T00:41:18;2.10;99.90
10964;DHT22;5534;48.784;9.190;2024-01-15T00:43:45;2.20;99.90
10964;DHT22;5534;48.784;9.190;2024-01-15T00:46:11;2.10;99.90
10964;DHT22;5534;48.784;9.190;2024-01-15T00:48:37;2.00;99.90
10964;DHT22;5534;48.784;9.190;2024-01-15T00:51:04;2.00;99.90
10964;DHT22;5534;48.784;9.190;2024-01-15T00:53:30;2.10;99.90
10964;DHT22;5534;48.784;9.190;2024-01-15T00:55:57;2.00;99.90
10964;DHT22;5534;48.784;9.190;2024-01-15T00:58:22;2.10;99.90
10964;DHT22;5534;48.784;9.190;2024-01-15T01:00:48;1.90;99.90
10964;DHT22;5534;48.784;9.190;2024-01-15T01:03:14;2.00;99.90
10964;DHT22;5534;48.784;9.190;2024-01-15T01:05:40;2.00;99.90
10964;DHT22;5534;48.784;9.190;2024-01-15T01:08:06;2.00;99.90
10964;DHT22;5534;48.784;9.190;2024-01-15T01:10:31;2.00;99.90
10964;DHT22;5534;48.784;9.190;2024-01-15T01:12:57;2.00;99.90
10964;DHT22;5534;48.784;9.190;2024-01-15T01:15:23;2.20;99.90
10964;DHT22;5534;48.784;9.190;2024-01-15T01:17:50;2.20;99.90
10964;DHT22;5534;48.784;9.190;2024-01-15T01:20:15;2.20;99.90
10964;DHT22;5534;48.784;9.190;2024-01-15T01:22:41;2.10;99.90
10964;DHT22;5534;48.784;9.190;2024-01-15T01:25:07;2.10;99.90
10964;DHT22;5534;48.784;9.190;2024-01-15T01:27:33;2.10;99.90
10964;DHT22;5534;48.784;9.190;2024-01-15T01:29:59;2.30;99.90
10964;DHT22;5534;48.784;9.190;2024-01-15T01:32:25;2.30;99.90
10964;DHT22;5534;48.784;9.190;2024-01-15T01:34:50;2.30;99.90
10964;DHT22;5534;48.784;9.190;2024-01-15T01:37:16;2.30;99.90
10964;DHT22;5534;48.784;9.190;2024-01-15T01:39:42;2.10;99.90
10964;DHT22;5534;48.784;9.190;2024-01-15T01:42:08;2.10;99.90
10964;DHT22;5534;48.784;9.190;2024-01-15T01:44:34;2.10;99.90
10964;DHT22;5534;48.784;9.190;2024-01-15T01:47:01;2.10;99.90
10964;DHT22;5534;48.784;9.190;2024-01-15T01:49:27;2.20;99.90
10964;DHT22;5534;48.784;9.190;2024-01-15T01:51:56;2.30;99.90
10964;DHT22;5534;48.784;9.190;2024-01-15T01:54:23;2.30;99.90
10964;DHT22;5534;48.784;9.190;2024-01-15T01:56:51;2.30;99.90
10964;DHT22;5534;48.784;9.190;2024-01-15T01:59:17;2.40;99.90
10964;DHT22;5534;48.784;9.190;2024-01-15T02:01:44;2.50;99.90
10964;DHT22;5534;48.784;9.190;2024-01-15T02:04:11;2.40;99.90
10964;DHT22;5534;48.784;9.190;2024-01-15T02:06:37;2.50;99.90
10964;DHT22;5534;48.784;9.190;2024-01-15T02:09:03;2.50;99.90
10964;DHT22;5534;48.784;9.190;2024-01-15T02:11:31;2.40;99.90
10964;DHT22;5534;48.784;9.190;2024-01-15T02:13:57;2.50;99.90
10964;DHT22;5534;48.784;9.190;2024-01-15T02:16:22;2.40;99.90
10964;DHT22;5534;48.784;9.190;2024-01-15T02:18:48;2.40;99.90
10964;DHT22;5534;48.784;9.190;2024-01-15T02:21:14;2.40;99.90
10964;DHT22;5534;48.784;9.190;2024-01-15T02:23:40;2.50;99.90
10964;DHT22;5534;48.784;9.190;2024-01-15T02:26:05;2.50;99.90
10964;DHT22;5534;48.784;9.190;2024-01-15T02:28:32;2.50;99.90
10964;DHT22;5534;48.784;9.190;2024-01-15T02:30:58;2.50;99.90
10964;DHT22;5534;48.784;9.190;2024-01-15T02:33:24;2.50;99.90
10964;DHT22;5534;48.784;9.190;2024-01-15T02:35:50;2.40;99.90
10964;DHT22;5534;48.784;9.190;2024-01-15T02:38:16;2.30;99.90
10964;DHT22;5534;48.784;9.190;2024-01-15T02:40:44;2.40;99.90
10964;DHT22;5534;48.784;9.190;2024-01-15T02:43:11;2.40;99.90
10964;DHT22;5534;48.784;9.190;2024-01-15T02:45:39;2.50;99.90
10964;DHT22;5534;48.784;9.190;2024-01-15T02:48:05;2.40;99.90
10964;DHT22;5534;48.784;9.190;2024-01-15T02:50:31;2.50;99.90
10964;DHT22;5534;48.784;9.190;2024-01-15T02:52:57;2.40;99.90
10964;DHT22;5534;48.784;9.190;2024-01-15T02:55:22;2.30;99.90
10964;DHT22;5534;48.784;9.190;2024-01-15T02:57:48;2.20;99.90
10964;DHT22;5534;48.784;9.190;2024-01-15T03:00:17;2.30;99.90
10964;DHT22;5534;48.784;9.190;2024-01-15T03:02:44;2.40;99.90
10964;DHT22;5534;48.784;9.190;2024-01-15T03:05:10;2.30;99.90
10964;DHT22;5534;48.784;9.190;2024-01-15T03:07:36;2.30;99.90
10964;DHT22;5534;48.784;9.190;2024-01-15T03:10:02;2.40;99.90
10964;DHT22;5534;48.784;9.190;2024-01-15T03:12:28;2.40;99.90
10964;DHT22;5534;48.784;9.190;2024-01-15T03:14:54;2.40;99.90
10964;DHT22;5534;48.784;9.190;2024-01-15T03:17:20;2.40;99.90
10964;DHT22;5534;48.784;9.190;2024-01-15T03:19:45;2.30;99.90
10964;DHT22;5534;48.784;9.190;2024-01-15T03:22:11;2.30;99.90
10964;DHT22;5534;48.784;9.190;2024-01-15T03:24:37;2.40;99.90
10964;DHT22;5534;48.784;9.190;2024-01-15T03:27:03;2.30;99.90
10964;DHT22;5534;48.784;9.190;2024-01-15T03:29:28;2.40;99.90
10964;DHT22;5534;48.784;9.190;2024-01-15T03:31:54;2.30;99.90
10964;DHT22;5534;48.784;9.190;2024-01-15T03:34:20;2.40;99.90
10964;DHT22;5534;48.784;9.190;2024-01-15T03:36:46;2.30;99.90
10964;DHT22;5534;48.784;9.190;2024-01-15T03:39:11;2.30;99.90
10964;DHT22;5534;48.784;9.190;2024-01-15T03:41:37;2.40;99.90
10964;DHT22;5534;48.784;9.190;2024-01-15T03:44:03;2.30;99.90
10964;DHT22;5534;48.784;9.190;2024-01-15T03:46:30;2.40;99.90
10964;DHT22;5534;48.784;9.190;2024-01-15T03:48:58;2.40;99.90
10964;DHT22;5534;48.784;9.190;2024-01-15T03:51:24;2.40;99.90
10964;DHT22;5534;48.784;9.190;2024-01-15T03:53:50;2.40;99.90
10964;DHT22;5534;48.784;9.190;2024-01-15T03:56:16;2.50;99.90
10964;DHT22;5534;48.784;9.190;2024-01-15T03:58:42;2.40;99.90
10964;DHT22;5534;48.784;9.190;2024-01-15T04:01:10;2.50;99.90
10964;DHT22;5534;48.784;9.190;2024-01-15T04:03:37;2.50;99.90
10964;DHT22;5534;48.784;9.190;2024-01-15T04:06:03;2.60;99.90
10964;DHT22;5534;48.784;9.190;2024-01-15T04:08:29;2.60;99.90
10964;DHT22;5534;48.784;9.190;2024-01-15T04:10:55;2.60;99.90
10964;DHT22;5534;48.784;9.190;2024-01-15T04:13:21;2.60;99.90
10964;DHT22;5534;48.784;9.190;2024-01-15T04:15:47;2.60;99.90
10964;DHT22;5534;48.784;9.190;2024-01-15T04:18:12;2.60;99.90
10964;DHT22;5534;48.784;9.190;2024-01-15T04:20:38;2.60;99.90
10964;DHT22;5534;48.784;9.190;2024-01-15T04:23:04;2.70;99.90
10964;DHT22;5534;48.784;9.190;2024-01-15T04:25:30;2.70;99.90
10964;DHT22;5534;48.784;9.190;2024-01-15T04:27:56;2.70;99.90
10964;DHT22;5534;48.784;9.190;2024-01-15T04:30:22;2.70;99.90
10964;DHT22;5534;48.784;9.190;2024-01-15T04:32:48;2.70;99.90
10964;DHT22;5534;48.784;9.190;2024-01-15T04:35:14;2.70;99.90
10964;DHT22;5534;48.784;9.190;2024-01-15T04:37:40;2.50;99.90
10964;DHT22;5534;48.784;9.190;2024-01-15T04:40:07;2.40;99.90
10964;DHT22;5534;48.784;9.190;2024-01-15T04:42:33;2.50;99.90
10964;DHT22;5534;48.784;9.190;2024-01-15T04:44:59;2.60;99.90
10964;DHT22;5534;48.784;9.190;2024-01-15T04:47:25;2.50;99.90
10964;DHT22;5534;48.784;9.190;2024-01-15T04:49:50;2.60;99.90
10964;DHT22;5534;48.784;9.190;2024-01-15T04:52:16;2.60;99.90
10964;DHT22;5534;48.784;9.190;2024-01-15T04:54:42;2.40;99.90
10964;DHT22;5534;48.784;9.190;2024-01-15T04:57:08;2.60;99.90
10964;DHT22;5534;48.784;9.190;2024-01-15T04:59:33;2.70;99.90
10964;DHT22;5534;48.784;9.190;2024-01-15T05:01:59;2.60;99.90
10964;DHT22;5534;48.784;9.190;2024-01-15T05:04:25;2.50;99.90
10964;DHT22;5534;48.784;9.190;2024-01-15T05:06:51;2.40;99.90
10964;DHT22;5534;48.784;9.190;2024-01-15T05:09:17;2.50;99.90
10964;DHT22;5534;48.784;9.190;2024-01-15T05:11:43;2.60;99.90
10964;DHT22;5534;48.784;9.190;2024-01-15T05:14:09;2.60;99.90
10964;DHT22;5534;48.784;9.190;2024-01-15T05:16:37;2.60;99.90
10964;DHT22;5534;48.784;9.190;2024-01-15T05:19:03;2.70;99.90
10964;DHT22;5534;48.784;9.190;2024-01-15T05:21:29;2.60;99.90
10964;DHT22;5534;48.784;9.190;2024-01-15T05:23:55;2.50;99.90
10964;DHT22;5534;48.784;9.190;2024-01-15T05:26:21;2.60;99.90
10964;DHT22;5534;48.784;9.190;2024-01-15T05:28:46;2.70;99.90
10964;DHT22;5534;48.784;9.190;2024-01-15T05:31:12;2.90;99.90
10964;DHT22;5534;48.784;9.190;2024-01-15T05:33:38;2.90;99.90
10964;DHT22;5534;48.784;9.190;2024-01-15T05:36:04;2.70;99.90
10964;DHT22;5534;48.784;9.190;2024-01-15T05:38:30;2.70;99.90
10964;DHT22;5534;48.784;9.190;2024-01-15T05:40:56;2.60;99.90
10964;DHT22;5534;48.784;9.190;2024-01-15T05:43:21;2.60;99.90
10964;DHT22;5534;48.784;9.190;2024-01-15T05:45:47;2.70;99.90
10964;DHT22;5534;48.784;9.190;2024-01-15T05:48:13;2.80;99.90
10964;DHT22;5534;48.784;9.190;2024-01-15T05:50:39;2.80;99.90
10964;DHT22;5534;48.784;9.190;2024-01-15T05:53:04;2.80;99.90
10964;DHT22;5534;48.784;9.190;2024-01-15T05:55:30;2.80;99.90
10964;DHT22;5534;48.784;9.190;2024-01-15T05:57:56;2.90;99.90
10964;DHT22;5534;48.784;9.190;2024-01-15T06:00:22;2.90;99.90
10964;DHT22;5534;48.784;9.190;2024-01-15T06:02:48;2.80;99.90
10964;DHT22;5534;48.784;9.190;2024-01-15T06:05:13;2.80;99.90
10964;DHT22;5534;48.784;9.190;2024-01-15T06:07:39;2.80;99.90
10964;DHT22;5534;48.784;9.190;2024-01-15T06:10:05;2.90;99.90
10964;DHT22;5534;48.784;9.190;2024-01-15T06:12:31;2.90;99.90
10964;DHT22;5534;48.784;9.190;2024-01-15T06:14:59;3.00;99.90
10964;DHT22;5534;48.784;9.190;2024-01-15T06:17:24;2.90;99.90
10964;DHT22;5534;48.784;9.190;2024-01-15T06:19:50;2.90;99.90
10964;DHT22;5534;48.784;9.190;2024-01-15T06:22:16;2.90;99.90
10964;DHT22;5534;48.784;9.190;2024-01-15T06:24:42;3.00;99.90
10964;DHT22;5534;48.784;9.190;2024-01-15T06:27:08;3.00;99.90
10964;DHT22;5534;48.784;9.190;2024-01-15T06:29:37;2.90;99.90
10964;DHT22;5534;48.784;9.190;2024-01-15T06:32:03;3.00;99.90
10964;DHT22;5534;48.784;9.190;2024-01-15T06:34:29;3.00;99.90
10964;DHT22;5534;48.784;9.190;2024-01-15T06:36:55;3.10;99.90
10964;DHT22;5534;48.784;9.190;2024-01-15T06:39:21;2.80;99.90
10964;DHT22;5534;48.784;9.190;2024-01-15T06:41:46;2.80;99.90
10964;DHT22;5534;48.784;9.190;2024-01-15T06:44:12;2.90;99.90
10964;DHT22;5534;48.784;9.190;2024-01-15T06:46:45;2.70;99.90
10964;DHT22;5534;48.784;9.190;2024-01-15T06:49:11;2.70;99.90
10964;DHT22;5534;48.784;9.190;2024-01-15T06:51:37;2.70;99.90
10964;DHT22;5534;48.784;9.190;2024-01-15T06:54:03;2.70;99.90
10964;DHT22;5534;48.784;9.190;2024-01-15T06:56:31;2.90;99.90
10964;DHT22;5534;48.784;9.190;2024-01-15T06:58:57;2.90;99.90
10964;DHT22;5534;48.784;9.190;2024-01-15T07:01:23;2.80;99.90
10964;DHT22;5534;48.784;9.190;2024-01-15T07:03:49;2.90;99.90
10964;DHT22;5534;48.784;9.190;2024-01-15T07:06:14;3.00;99.90
10964;DHT22;5534;48.784;9.190;2024-01-15T07:08:41;3.10;99.90
10964;DHT22;5534;48.784;9.190;2024-01-15T07:11:07;3.00;99.90
10964;DHT22;5534;48.784;9.190;2024-01-15T07:13:34;3.00;99.90
10964;DHT22;5534;48.784;9.190;2024-01-15T07:16:01;3.00;99.90
10964;DHT22;5534;48.784;9.190;2024-01-15T07:18:27;3.00;99.90
10964;DHT22;5534;48.784;9.190;2024-01-15T07:20:52;3.00;99.90
10964;DHT22;5534;48.784;9.190;2024-01-15T07:23:18;3.00;99.90
10964;DHT22;5534;48.784;9.190;2024-01-15T07:25:44;2.80;99.90
10964;DHT22;5534;48.784;9.190;2024-01-15T07:28:10;2.90;99.90
10964;DHT22;5534;48.784;9.190;2024-01-15T07:30:35;3.00;99.90
10964;DHT22;5534;48.784;9.190;2024-01-15T07:33:04;3.00;99.90
10964;DHT22;5534;48.784;9.190;2024-01-15T07:35:30;3.00;99.90
10964;DHT22;5534;48.784;9.190;2024-01-15T07:37:56;3.20;99.90
10964;DHT22;5534;48.784;9.190;2024-01-15T07:40:22;3.00;99.90
10964;DHT22;5534;48.784;9.190;2024-01-15T07:42:48;3.00;99.90
10964;DHT22;5534;48.784;9.190;2024-01-15T07:45:14;3.10;99.90
10964;DHT22;5534;48.784;9.190;2024-01-15T07:47:40;3.20;99.90
10964;DHT22;5534;48.784;9.190;2024-01-15T07:50:05;3.10;99.90
10964;DHT22;5534;48.784;9.190;2024-01-15T07:52:31;3.00;99.90
10964;DHT22;5534;48.784;9.190;2024-01-15T07:54:58;3.10;99.90
10964;DHT22;5534;48.784;9.190;2024-01-15T07:57:25;3.20;99.90
10964;DHT22;5534;48.784;9.190;2024-01-15T07:59:51;3.00;99.90
10964;DHT22;5534;48.784;9.190;2024-01-15T08:02:17;3.00;99.90
10964;DHT22;5534;48.784;9.190;2024-01-15T08:04:43;2.90;99.90
10964;DHT22;5534;48.784;9.190;2024-01-15T08:07:08;3.10;99.90
10964;DHT22;5534;48.784;9.190;2024-01-15T08:09:34;3.20;99.90
10964;DHT22;5534;48.784;9.190;2024-01-15T08:12:00;3.20;99.90
10964;DHT22;5534;48.784;9.190;2024-01-15T08:14:26;3.20;99.90
10964;DHT22;5534;48.784;9.190;2024-01-15T08:16:52;3.30;99.90
10964;DHT22;5534;48.784;9.190;2024-01-15T08:19:18;3.00;99.90
10964;DHT22;5534;48.784;9.190;2024-01-15T08:21:45;3.20;99.90
10964;DHT22;5534;48.784;9.190;2024-01-15T08:24:11;3.20;99.90
10964;DHT22;5534;48.784;9.190;2024-01-15T08:26:37;3.20;99.90
10964;DHT22;5534;48.784;9.190;2024-01-15T08:29:03;3.00;99.90
10964;DHT22;5534;48.784;9.190;2024-01-15T08:31:31;3.10;99.90
10964;DHT22;5534;48.784;9.190;2024-01-15T08:33:57;3.20;99.90
10964;DHT22;5534;48.784;9.190;2024-01-15T08:36:25;3.40;99.90
10964;DHT22;5534;48.784;9.190;2024-01-15T08:38:50;3.40;99.90
10964;DHT22;5534;48.784;9.190;2024-01-15T08:41:16;3.50;99.90
10964;DHT22;5534;48.784;9.190;2024-01-15T08:43:42;3.40;99.90
10964;DHT22;5534;48.784;9.190;2024-01-15T08:46:08;3.20;99.90
10964;DHT22;5534;48.784;9.190;2024-01-15T08:48:34;3.40;99.90
10964;DHT22;5534;48.784;9.190;2024-01-15T08:51:00;3.40;99.90
10964;DHT22;5534;48.784;9.190;2024-01-15T08:53:25;3.40;99.90
10964;DHT22;5534;48.784;9.190;2024-01-15T08:55:51;3.40;99.90
10964;DHT22;5534;48.784;9.190;2024-01-15T08:58:17;3.60;99.90
10964;DHT22;5534;48.784;9.190;2024-01-15T09:00:43;3.50;99.90
10964;DHT22;5534;48.784;9.190;2024-01-15T09:03:09;3.40;99.90
10964;DHT22;5534;48.784;9.190;2024-01-15T09:05:35;3.60;99.90
10964;DHT22;5534;48.784;9.190;2024-01-15T09:08:01;3.70;99.90
10964;DHT22;5534;48.784;9.190;2024-01-15T09:10:26;3.70;99.90
10964;DHT22;5534;48.784;9.190;2024-01-15T09:12:52;3.70;99.90
10964;DHT22;5534;48.784;9.190;2024-01-15T09:15:18;3.80;99.90
10964;DHT22;5534;48.784;9.190;2024-01-15T09:17:44;3.90;99.90
10964;DHT22;5534;48.784;9.190;2024-01-15T09:20:11;3.90;99.90
10964;DHT22;5534;48.784;9.190;2024-01-15T09:22:40;4.00;99.90
10964;DHT22;5534;48.784;9.190;2024-01-15T09:25:10;4.00;99.90
10964;DHT22;5534;48.784;9.190;2024-01-15T09:27:36;4.00;99.90
10964;DHT22;5534;48.784;9.190;2024-01-15T09:30:03;3.80;99.90
10964;DHT22;5534;48.784;9.190;2024-01-15T09:32:29;3.80;99.90
10964;DHT22;5534;48.784;9.190;2024-01-15T09:34:55;3.90;99.90
10964;DHT22;5534;48.784;9.190;2024-01-15T09:37:21;3.80;99.90
10964;DHT22;5534;48.784;9.190;2024-01-15T09:39:47;3.90;99.90
10964;DHT22;5534;48.784;9.190;2024-01-15T09:42:14;3.90;99.90
10964;DHT22;5534;48.784;9.190;2024-01-15T09:44:40;3.90;99.90
10964;DHT22;5534;48.784;9.190;2024-01-15T09:47:06;4.10;99.90
10964;DHT22;5534;48.784;9.190;2024-01-15T09:49:33;4.30;99.90
10964;DHT22;5534;48.784;9.190;2024-01-15T09:51:59;4.10;99.90
10964;DHT22;5534;48.784;9.190;2024-01-15T09:54:27;4.20;99.90
10964;DHT22;5534;48.784;9.190;2024-01-15T09:56:54;4.20;99.90
10964;DHT22;5534;48.784;9.190;2024-01-15T09:59:20;4.30;99.90
10964;DHT22;5534;48.784;9.190;2024-01-15T10:01:47;4.30;99.90
10964;DHT22;5534;48.784;9.190;2024-01-15T10:04:15;4.30;99.90
10964;DHT22;5534;48.784;9.190;2024-01-15T10:06:47;4.10;99.90
10964;DHT22;5534;48.784;9.190;2024-01-15T10:09:16;4.20;99.90
10964;DHT22;5534;48.784;9.190;2024-01-15T10:11:43;4.10;99.90
10964;DHT22;5534;48.784;9.190;2024-01-15T10:14:10;4.10;99.90
10964;DHT22;5534;48.784;9.190;2024-01-15T10:16:42;4.10;99.90
10964;DHT22;5534;48.784;9.190;2024-01-15T10:19:08;4.10;99.90
10964;DHT22;5534;48.784;9.190;2024-01-15T10:21:35;4.00;99.90
10964;DHT22;5534;48.784;9.190;2024-01-15T10:24:02;3.90;99.90
10964;DHT22;5534;48.784;9.190;2024-01-15T10:26:29;4.00;99.90
10964;DHT22;5534;48.784;9.190;2024-01-15T10:28:54;4.00;99.90
10964;DHT22;5534;48.784;9.190;2024-01-15T10:31:20;4.10;99.90
10964;DHT22;5534;48.784;9.190;2024-01-15T10:33:53;4.20;99.90
10964;DHT22;5534;48.784;9.190;2024-01-15T10:36:19;4.10;99.90
10964;DHT22;5534;48.784;9.190;2024-01-15T10:38:45;4.10;99.90
10964;DHT22;5534;48.784;9.190;2024-01-15T10:41:11;4.20;99.90
10964;DHT22;5534;48.784;9.190;2024-01-15T10:43:37;4.20;99.90
10964;DHT22;5534;48.784;9.190;2024-01-15T10:46:03;4.10;99.90
10964;DHT22;5534;48.784;9.190;2024-01-15T10:48:29;3.90;99.90
10964;DHT22;5534;48.784;9.190;2024-01-15T10:50:57;3.80;99.90
10964;DHT22;5534;48.784;9.190;2024-01-15T10:53:24;3.80;99.90
10964;DHT22;5534;48.784;9.190;2024-01-15T10:55:54;4.10;99.90
10964;DHT22;5534;48.784;9.190;2024-01-15T10:58:21;4.00;99.90
10964;DHT22;5534;48.784;9.190;2024-01-15T11:00:49;4.00;99.90
10964;DHT22;5534;48.784;9.190;2024-01-15T11:03:15;4.10;99.90
10964;DHT22;5534;48.784;9.190;2024-01-15T11:05:43;4.00;99.90
10964;DHT22;5534;48.784;9.190;2024-01-15T11:08:09;4.00;99.90
10964;DHT22;5534;48.784;9.190;2024-01-15T11:10:50;4.10;99.90
10964;DHT22;5534;48.784;9.190;2024-01-15T11:16:00;4.20;99.90
10964;DHT22;5534;48.784;9.190;2024-01-15T11:18:28;4.10;99.90
10964;DHT22;5534;48.784;9.190;2024-01-15T11:26:37;3.70;99.90
10964;DHT22;5534;48.784;9.190;2024-01-15T11:29:05;3.60;99.90
10964;DHT22;5534;48.784;9.190;2024-01-15T11:34:10;3.90;99.90
10964;DHT22;5534;48.784;9.190;2024-01-15T11:39:40;3.90;99.90
10964;DHT22;5534;48.784;9.190;2024-01-15T11:42:10;3.90;99.90
10964;DHT22;5534;48.784;9.190;2024-01-15T11:44:37;4.10;99.90
10964;DHT22;5534;48.784;9.190;2024-01-15T11:52:18;4.00;99.90
10964;DHT22;5534;48.784;9.190;2024-01-15T11:55:22;4.00;99.90
10964;DHT22;5534;48.784;9.190;2024-01-15T11:57:53;4.20;99.90
10964;DHT22;5534;48.784;9.190;2024-01-15T12:00:21;3.90;99.90
10964;DHT22;5534;48.784;9.190;2024-01-15T12:02:48;4.10;99.90
10964;DHT22;5534;48.784;9.190;2024-01-15T12:05:15;4.10;99.90
10964;DHT22;5534;48.784;9.190;2024-01-15T12:07:49;3.90;99.90
10964;DHT22;5534;48.784;9.190;2024-01-15T12:10:19;4.00;99.90
10964;DHT22;5534;48.784;9.190;2024-01-15T12:13:05;4.10;99.90
10964;DHT22;5534;48.784;9.190;2024-01-15T12:15:32;4.10;99.90
10964;DHT22;5534;48.784;9.190;2024-01-15T12:18:00;4.10;99.90
10964;DHT22;5534;48.784;9.190;2024-01-15T12:20:31;4.10;99.90
10964;DHT22;5534;48.784;9.190;2024-01-15T12:22:58;4.10;99.90
10964;DHT22;5534;48.784;9.190;2024-01-15T12:25:24;4.00;99.90
10964;DHT22;5534;48.784;9.190;2024-01-15T12:27:52;3.80;99.90
10964;DHT22;5534;48.784;9.190;2024-01-15T12:30:19;3.90;99.90
10964;DHT22;5534;48.784;9.190;2024-01-15T12:32:45;4.00;99.90
10964;DHT22;5534;48.784;9.190;2024-01-15T12:35:12;3.80;99.90
10964;DHT22;5534;48.784;9.190;2024-01-15T12:37:39;3.90;99.90
10964;DHT22;5534;48.784;9.190;2024-01-15T12:40:07;3.90;99.90
10964;DHT22;5534;48.784;9.190;2024-01-15T12:42:41;3.90;99.90
10964;DHT22;5534;48.784;9.190;2024-01-15T12:45:09;3.80;99.90
10964;DHT22;5534;48.784;9.190;2024-01-15T12:47:39;3.80;99.90
10964;DHT22;5534;48.784;9.190;2024-01-15T12:50:09;3.70;99.90
10964;DHT22;5534;48.784;9.190;2024-01-15T12:52:36;3.60;99.90
10964;DHT22;5534;48.784;9.190;2024-01-15T12:55:05;3.70;99.90
10964;DHT22;5534;48.784;9.190;2024-01-15T12:57:30;3.70;99.90
10964;DHT22;5534;48.784;9.190;2024-01-15T12:59:56;3.70;99.90
10964;DHT22;5534;48.784;9.190;2024-01-15T13:02:23;3.70;99.90
10964;DHT22;5534;48.784;9.190;2024-01-15T13:04:49;3.80;99.90
10964;DHT22;5534;48.784;9.190;2024-01-15T13:07:15;3.70;99.90
10964;DHT22;5534;48.784;9.190;2024-01-15T13:09:41;3.70;99.90
10964;DHT22;5534;48.784;9.190;2024-01-15T13:12:07;3.70;99.90
10964;DHT22;5534;48.784;9.190;2024-01-15T13:14:32;3.70;99.90
10964;DHT22;5534;48.784;9.190;2024-01-15T13:16:59;3.70;99.90
10964;DHT22;5534;48.784;9.190;2024-01-15T13:19:26;3.70;99.90
10964;DHT22;5534;48.784;9.190;2024-01-15T13:21:53;3.60;99.90
10964;DHT22;5534;48.784;9.190;2024-01-15T13:24:20;3.50;99.90
10964;DHT22;5534;48.784;9.190;2024-01-15T13:26:46;3.60;99.90
10964;DHT22;5534;48.784;9.190;2024-01-15T13:29:13;3.50;99.90
10964;DHT22;5534;48.784;9.190;2024-01-15T13:31:39;3.70;99.90
10964;DHT22;5534;48.784;9.190;2024-01-15T13:34:05;3.80;99.90
10964;DHT22;5534;48.784;9.190;2024-01-15T13:36:32;3.80;99.90
10964;DHT22;5534;48.784;9.190;2024-01-15T13:38:58;3.60;99.90
10964;DHT22;5534;48.784;9.190;2024-01-15T13:41:24;3.70;99.90
10964;DHT22;5534;48.784;9.190;2024-01-15T13:43:53;3.80;99.90
10964;DHT22;5534;48.784;9.190;2024-01-15T13:46:23;3.70;99.90
10964;DHT22;5534;48.784;9.190;2024-01-15T13:48:49;3.80;99.90
10964;DHT22;5534;48.784;9.190;2024-01-15T13:51:15;3.90;99.90
10964;DHT22;5534;48.784;9.190;2024-01-15T13:53:41;4.00;99.90
10964;DHT22;5534;48.784;9.190;2024-01-15T13:56:07;3.90;99.90
10964;DHT22;5534;48.784;9.190;2024-01-15T13:58:35;3.90;99.90
10964;DHT22;5534;48.784;9.190;2024-01-15T14:01:01;3.90;99.90
10964;DHT22;5534;48.784;9.190;2024-01-15T14:03:29;3.70;99.90
10964;DHT22;5534;48.784;9.190;2024-01-15T14:05:55;3.70;99.90
10964;DHT22;5534;48.784;9.190;2024-01-15T14:08:21;3.90;99.90
10964;DHT22;5534;48.784;9.190;2024-01-15T14:10:47;3.80;99.90
10964;DHT22;5534;48.784;9.190;2024-01-15T14:13:12;3.90;99.90
10964;DHT22;5534;48.784;9.190;2024-01-15T14:15:38;3.80;99.90
10964;DHT22;5534;48.784;9.190;2024-01-15T14:18:04;3.90;99.90
10964;DHT22;5534;48.784;9.190;2024-01-15T14:20:30;3.90;99.90
10964;DHT22;5534;48.784;9.190;2024-01-15T14:22:56;3.90;99.90
10964;DHT22;5534;48.784;9.190;2024-01-15T14:25:22;3.70;99.90
10964;DHT22;5534;48.784;9.190;2024-01-15T14:27:50;3.80;99.90
10964;DHT22;5534;48.784;9.190;2024-01-15T14:30:16;4.00;99.90
10964;DHT22;5534;48.784;9.190;2024-01-15T14:32:42;3.90;99.90
10964;DHT22;5534;48.784;9.190;2024-01-15T14:35:09;4.00;99.90
10964;DHT22;5534;48.784;9.190;2024-01-15T14:37:39;3.90;99.90
10964;DHT22;5534;48.784;9.190;2024-01-15T14:40:05;3.60;99.90
10964;DHT22;5534;48.784;9.190;2024-01-15T14:42:34;3.60;99.90
10964;DHT22;5534;48.784;9.190;2024-01-15T14:45:00;3.60;99.90
10964;DHT22;5534;48.784;9.190;2024-01-15T14:47:27;3.70;99.90
10964;DHT22;5534;48.784;9.190;2024-01-15T14:49:53;3.80;99.90
10964;DHT22;5534;48.784;9.190;2024-01-15T14:52:18;3.80;99.90
10964;DHT22;5534;48.784;9.190;2024-01-15T14:54:45;3.70;99.90
10964;DHT22;5534;48.784;9.190;2024-01-15T14:57:13;3.70;99.90
10964;DHT22;5534;48.784;9.190;2024-01-15T14:59:39;3.80;99.90
10964;DHT22;5534;48.784;9.190;2024-01-15T15:02:06;3.60;99.90
10964;DHT22;5534;48.784;9.190;2024-01-15T15:04:32;3.60;99.90
10964;DHT22;5534;48.784;9.190;2024-01-15T15:07:01;3.60;99.90
10964;DHT22;5534;48.784;9.190;2024-01-15T15:09:27;3.40;99.90
10964;DHT22;5534;48.784;9.190;2024-01-15T15:11:52;3.60;99.90
10964;DHT22;5534;48.784;9.190;2024-01-15T15:14:18;3.40;99.90
10964;DHT22;5534;48.784;9.190;2024-01-15T15:16:44;3.50;99.90
10964;DHT22;5534;48.784;9.190;2024-01-15T15:19:12;3.70;99.90
10964;DHT22;5534;48.784;9.190;2024-01-15T15:21:38;3.60;99.90
10964;DHT22;5534;48.784;9.190;2024-01-15T15:24:04;3.50;99.90
10964;DHT22;5534;48.784;9.190;2024-01-15T15:26:30;3.40;99.90
10964;DHT22;5534;48.784;9.190;2024-01-15T15:28:56;3.60;99.90
10964;DHT22;5534;48.784;9.190;2024-01-15T15:31:22;3.60;99.90
10964;DHT22;5534;48.784;9.190;2024-01-15T15:33:47;3.60;99.90
10964;DHT22;5534;48.784;9.190;2024-01-15T15:36:13;3.50;99.90
10964;DHT22;5534;48.784;9.190;2024-01-15T15:38:39;3.60;99.90
10964;DHT22;5534;48.784;9.190;2024-01-15T15:41:04;3.70;99.90
10964;DHT22;5534;48.784;9.190;2024-01-15T15:43:30;3.80;99.90
10964;DHT22;5534;48.784;9.190;2024-01-15T15:45:56;3.70;99.90
10964;DHT22;5534;48.784;9.190;2024-01-15T15:48:23;3.70;99.90
10964;DHT22;5534;48.784;9.190;2024-01-15T15:50:50;3.60;99.90
10964;DHT22;5534;48.784;9.190;2024-01-15T15:53:18;3.60;99.90
10964;DHT22;5534;48.784;9.190;2024-01-15T15:55:44;3.70;99.90
10964;DHT22;5534;48.784;9.190;2024-01-15T15:58:10;3.70;99.90
10964;DHT22;5534;48.784;9.190;2024-01-15T16:00:35;3.70;99.90
10964;DHT22;5534;48.784;9.190;2024-01-15T16:03:01;3.70;99.90
10964;DHT22;5534;48.784;9.190;2024-01-15T16:05:27;3.70;99.90
10964;DHT22;5534;48.784;9.190;2024-01-15T16:07:52;3.80;99.90
10964;DHT22;5534;48.784;9.190;2024-01-15T16:10:18;3.70;99.90
10964;DHT22;5534;48.784;9.190;2024-01-15T16:12:45;3.80;99.90
10964;DHT22;5534;48.784;9.190;2024-01-15T16:15:18;3.90;99.90
10964;DHT22;5534;48.784;9.190;2024-01-15T16:17:48;3.70;99.90